sensor_id;sensor_type;location;lat;lon;timestamp;P1;durP1;ratioP1;P2;durP2;ratioP2
42662;SDS011;44330;51.360;6.686;2023-05-19T00:01:35;21.88;;;6.38;;
42662;SDS011;44330;51.360;6.686;2023-05-19T00:04:01;14.60;;;4.05;;
42662;SDS011;44330;51.360;6.686;2023-05-19T00:06:29;11.82;;;3.75;;
42662;SDS011;44330;51.360;6.686;2023-05-19T00:08:57;13.20;;;4.20;;
42662;SDS011;44330;51.360;6.686;2023-05-19T00:11:27;34.38;;;10.23;;
42662;SDS011;44330;51.360;6.686;2023-05-19T00:13:53;20.60;;;7.03;;
42662;SDS011;44330;51.360;6.686;2023-05-19T00:16:20;22.15;;;5.32;;
42662;SDS011;44330;51.360;6.686;2023-05-19T00:18:47;12.60;;;3.60;;
42662;SDS011;44330;51.360;6.686;2023-05-19T00:21:13;9.35;;;3.85;;
42662;SDS011;44330;51.360;6.686;2023-05-19T00:23:38;16.45;;;4.10;;
42662;SDS011;44330;51.360;6.686;2023-05-19T00:26:04;15.18;;;4.38;;
42662;SDS011;44330;51.360;6.686;2023-05-19T00:28:30;21.30;;;4.38;;
42662;SDS011;44330;51.360;6.686;2023-05-19T00:30:55;17.33;;;4.18;;
42662;SDS011;44330;51.360;6.686;2023-05-19T00:33:21;16.40;;;3.78;;
42662;SDS011;44330;51.360;6.686;2023-05-19T00:35:47;22.02;;;4.85;;
42662;SDS011;44330;51.360;6.686;2023-05-19T00:38:12;14.25;;;4.00;;
42662;SDS011;44330;51.360;6.686;2023-05-19T00:40:38;13.90;;;3.50;;
42662;SDS011;44330;51.360;6.686;2023-05-19T00:43:04;18.00;;;3.78;;
42662;SDS011;44330;51.360;6.686;2023-05-19T00:45:29;13.18;;;3.47;;
42662;SDS011;44330;51.360;6.686;2023-05-19T00:47:55;10.95;;;3.67;;
42662;SDS011;44330;51.360;6.686;2023-05-19T00:50:21;13.38;;;4.05;;
42662;SDS011;44330;51.360;6.686;2023-05-19T00:52:48;10.57;;;3.55;;
42662;SDS011;44330;51.360;6.686;2023-05-19T00:55:14;10.35;;;4.10;;
42662;SDS011;44330;51.360;6.686;2023-05-19T00:57:40;12.35;;;3.85;;
42662;SDS011;44330;51.360;6.686;2023-05-19T01:00:07;18.55;;;4.15;;
42662;SDS011;44330;51.360;6.686;2023-05-19T01:02:33;15.18;;;3.75;;
42662;SDS011;44330;51.360;6.686;2023-05-19T01:04:59;9.13;;;3.55;;
42662;SDS011;44330;51.360;6.686;2023-05-19T01:07:25;10.88;;;3.90;;
42662;SDS011;44330;51.360;6.686;2023-05-19T01:09:51;12.35;;;3.80;;
42662;SDS011;44330;51.360;6.686;2023-05-19T01:12:17;11.43;;;4.25;;
42662;SDS011;44330;51.360;6.686;2023-05-19T01:14:43;10.32;;;3.75;;
42662;SDS011;44330;51.360;6.686;2023-05-19T01:17:32;17.42;;;4.38;;
42662;SDS011;44330;51.360;6.686;2023-05-19T01:22:39;9.30;;;4.15;;
42662;SDS011;44330;51.360;6.686;2023-05-19T01:25:31;18.27;;;5.25;;
42662;SDS011;44330;51.360;6.686;2023-05-19T01:28:21;11.30;;;4.25;;
42662;SDS011;44330;51.360;6.686;2023-05-19T01:30:59;16.25;;;4.60;;
42662;SDS011;44330;51.360;6.686;2023-05-19T01:33:26;15.70;;;4.60;;
42662;SDS011;44330;51.360;6.686;2023-05-19T01:35:53;14.38;;;4.13;;
42662;SDS011;44330;51.360;6.686;2023-05-19T01:38:19;16.08;;;4.30;;
42662;SDS011;44330;51.360;6.686;2023-05-19T01:40:46;10.25;;;4.63;;
42662;SDS011;44330;51.360;6.686;2023-05-19T01:43:20;8.32;;;3.83;;
42662;SDS011;44330;51.360;6.686;2023-05-19T01:45:48;13.35;;;4.55;;
42662;SDS011;44330;51.360;6.686;2023-05-19T01:48:14;10.82;;;4.55;;
42662;SDS011;44330;51.360;6.686;2023-05-19T01:50:41;12.18;;;5.20;;
42662;SDS011;44330;51.360;6.686;2023-05-19T01:53:07;13.52;;;4.63;;
42662;SDS011;44330;51.360;6.686;2023-05-19T01:55:41;15.60;;;5.15;;
42662;SDS011;44330;51.360;6.686;2023-05-19T01:58:24;13.10;;;4.85;;
42662;SDS011;44330;51.360;6.686;2023-05-19T02:01:20;11.18;;;4.68;;
42662;SDS011;44330;51.360;6.686;2023-05-19T02:09:36;11.50;;;4.40;;
42662;SDS011;44330;51.360;6.686;2023-05-19T02:12:08;15.00;;;4.90;;
42662;SDS011;44330;51.360;6.686;2023-05-19T02:14:48;13.63;;;5.20;;
42662;SDS011;44330;51.360;6.686;2023-05-19T02:17:23;15.73;;;5.18;;
42662;SDS011;44330;51.360;6.686;2023-05-19T02:19:53;13.57;;;5.32;;
42662;SDS011;44330;51.360;6.686;2023-05-19T02:22:18;13.05;;;4.68;;
42662;SDS011;44330;51.360;6.686;2023-05-19T02:24:44;17.30;;;5.38;;
42662;SDS011;44330;51.360;6.686;2023-05-19T02:27:11;14.77;;;4.60;;
42662;SDS011;44330;51.360;6.686;2023-05-19T02:29:37;13.73;;;5.40;;
42662;SDS011;44330;51.360;6.686;2023-05-19T02:32:02;14.68;;;5.60;;
42662;SDS011;44330;51.360;6.686;2023-05-19T02:34:28;16.38;;;5.20;;
42662;SDS011;44330;51.360;6.686;2023-05-19T02:36:54;19.70;;;5.95;;
42662;SDS011;44330;51.360;6.686;2023-05-19T02:39:20;21.05;;;5.07;;
42662;SDS011;44330;51.360;6.686;2023-05-19T02:41:45;13.73;;;4.95;;
42662;SDS011;44330;51.360;6.686;2023-05-19T02:44:11;17.08;;;5.93;;
42662;SDS011;44330;51.360;6.686;2023-05-19T02:46:37;14.82;;;6.10;;
42662;SDS011;44330;51.360;6.686;2023-05-19T02:49:02;12.05;;;5.63;;
42662;SDS011;44330;51.360;6.686;2023-05-19T02:51:28;15.13;;;5.22;;
42662;SDS011;44330;51.360;6.686;2023-05-19T02:53:53;13.82;;;5.55;;
42662;SDS011;44330;51.360;6.686;2023-05-19T02:56:19;14.98;;;5.78;;
42662;SDS011;44330;51.360;6.686;2023-05-19T02:58:45;14.40;;;5.70;;
42662;SDS011;44330;51.360;6.686;2023-05-19T03:01:11;11.65;;;5.82;;
42662;SDS011;44330;51.360;6.686;2023-05-19T03:03:36;17.20;;;6.53;;
42662;SDS011;44330;51.360;6.686;2023-05-19T03:06:02;13.70;;;6.85;;
42662;SDS011;44330;51.360;6.686;2023-05-19T03:08:28;12.93;;;6.22;;
42662;SDS011;44330;51.360;6.686;2023-05-19T03:10:54;16.90;;;6.43;;
42662;SDS011;44330;51.360;6.686;2023-05-19T03:13:20;13.57;;;5.57;;
42662;SDS011;44330;51.360;6.686;2023-05-19T03:15:45;20.05;;;6.15;;
42662;SDS011;44330;51.360;6.686;2023-05-19T03:18:11;22.63;;;6.47;;
42662;SDS011;44330;51.360;6.686;2023-05-19T03:20:37;15.02;;;5.82;;
42662;SDS011;44330;51.360;6.686;2023-05-19T03:23:02;14.80;;;5.80;;
42662;SDS011;44330;51.360;6.686;2023-05-19T03:25:28;19.38;;;5.90;;
42662;SDS011;44330;51.360;6.686;2023-05-19T03:27:54;21.05;;;6.25;;
42662;SDS011;44330;51.360;6.686;2023-05-19T03:30:19;14.23;;;5.82;;
42662;SDS011;44330;51.360;6.686;2023-05-19T03:32:46;13.88;;;5.28;;
42662;SDS011;44330;51.360;6.686;2023-05-19T03:35:11;18.00;;;6.18;;
42662;SDS011;44330;51.360;6.686;2023-05-19T03:37:37;21.45;;;7.05;;
42662;SDS011;44330;51.360;6.686;2023-05-19T03:40:02;14.15;;;5.30;;
42662;SDS011;44330;51.360;6.686;2023-05-19T03:42:29;14.65;;;6.65;;
42662;SDS011;44330;51.360;6.686;2023-05-19T03:44:55;15.45;;;5.95;;
42662;SDS011;44330;51.360;6.686;2023-05-19T03:47:20;14.68;;;5.70;;
42662;SDS011;44330;51.360;6.686;2023-05-19T03:49:46;13.77;;;5.82;;
42662;SDS011;44330;51.360;6.686;2023-05-19T03:52:12;16.15;;;6.28;;
42662;SDS011;44330;51.360;6.686;2023-05-19T03:54:37;16.02;;;5.78;;
42662;SDS011;44330;51.360;6.686;2023-05-19T03:57:03;13.20;;;6.05;;
42662;SDS011;44330;51.360;6.686;2023-05-19T03:59:29;17.48;;;6.00;;
42662;SDS011;44330;51.360;6.686;2023-05-19T04:01:55;16.17;;;5.97;;
42662;SDS011;44330;51.360;6.686;2023-05-19T04:04:22;14.20;;;6.40;;
42662;SDS011;44330;51.360;6.686;2023-05-19T04:06:47;11.00;;;5.82;;
42662;SDS011;44330;51.360;6.686;2023-05-19T04:09:13;16.98;;;6.40;;
42662;SDS011;44330;51.360;6.686;2023-05-19T04:11:40;17.30;;;6.60;;
42662;SDS011;44330;51.360;6.686;2023-05-19T04:14:06;18.08;;;6.07;;
42662;SDS011;44330;51.360;6.686;2023-05-19T04:16:33;16.20;;;6.20;;
42662;SDS011;44330;51.360;6.686;2023-05-19T04:18:59;18.55;;;6.25;;
42662;SDS011;44330;51.360;6.686;2023-05-19T04:21:24;18.80;;;6.43;;
42662;SDS011;44330;51.360;6.686;2023-05-19T04:23:50;13.52;;;6.38;;
42662;SDS011;44330;51.360;6.686;2023-05-19T04:26:15;16.38;;;5.90;;
42662;SDS011;44330;51.360;6.686;2023-05-19T04:28:43;16.27;;;6.22;;
42662;SDS011;44330;51.360;6.686;2023-05-19T04:31:11;19.00;;;6.53;;
42662;SDS011;44330;51.360;6.686;2023-05-19T04:33:38;14.35;;;5.35;;
42662;SDS011;44330;51.360;6.686;2023-05-19T04:36:07;17.27;;;6.50;;
42662;SDS011;44330;51.360;6.686;2023-05-19T04:38:35;19.88;;;5.63;;
42662;SDS011;44330;51.360;6.686;2023-05-19T04:41:01;10.57;;;5.07;;
42662;SDS011;44330;51.360;6.686;2023-05-19T04:43:28;22.80;;;7.45;;
42662;SDS011;44330;51.360;6.686;2023-05-19T04:45:53;20.40;;;6.30;;
42662;SDS011;44330;51.360;6.686;2023-05-19T04:48:19;17.90;;;6.43;;
42662;SDS011;44330;51.360;6.686;2023-05-19T04:50:47;11.25;;;5.47;;
42662;SDS011;44330;51.360;6.686;2023-05-19T04:53:15;12.20;;;5.93;;
42662;SDS011;44330;51.360;6.686;2023-05-19T04:55:41;13.98;;;6.30;;
42662;SDS011;44330;51.360;6.686;2023-05-19T04:58:07;14.85;;;6.30;;
42662;SDS011;44330;51.360;6.686;2023-05-19T05:00:33;21.27;;;7.28;;
42662;SDS011;44330;51.360;6.686;2023-05-19T05:03:01;11.48;;;4.90;;
42662;SDS011;44330;51.360;6.686;2023-05-19T05:07:56;18.73;;;7.00;;
42662;SDS011;44330;51.360;6.686;2023-05-19T05:10:22;20.17;;;6.90;;
42662;SDS011;44330;51.360;6.686;2023-05-19T05:12:48;14.30;;;6.50;;
42662;SDS011;44330;51.360;6.686;2023-05-19T05:15:14;21.17;;;7.07;;
42662;SDS011;44330;51.360;6.686;2023-05-19T05:17:40;20.42;;;7.85;;
42662;SDS011;44330;51.360;6.686;2023-05-19T05:20:07;15.65;;;6.55;;
42662;SDS011;44330;51.360;6.686;2023-05-19T05:22:33;17.92;;;6.30;;
42662;SDS011;44330;51.360;6.686;2023-05-19T05:25:00;16.38;;;7.43;;
42662;SDS011;44330;51.360;6.686;2023-05-19T05:27:26;11.02;;;6.22;;
42662;SDS011;44330;51.360;6.686;2023-05-19T05:29:51;25.23;;;6.50;;
42662;SDS011;44330;51.360;6.686;2023-05-19T05:32:17;14.90;;;5.75;;
42662;SDS011;44330;51.360;6.686;2023-05-19T05:34:42;11.60;;;5.50;;
42662;SDS011;44330;51.360;6.686;2023-05-19T05:37:08;22.55;;;6.60;;
42662;SDS011;44330;51.360;6.686;2023-05-19T05:39:34;18.50;;;6.93;;
42662;SDS011;44330;51.360;6.686;2023-05-19T05:42:00;14.98;;;5.40;;
42662;SDS011;44330;51.360;6.686;2023-05-19T05:44:25;11.32;;;5.40;;
42662;SDS011;44330;51.360;6.686;2023-05-19T05:46:51;15.60;;;5.90;;
42662;SDS011;44330;51.360;6.686;2023-05-19T05:49:16;15.23;;;5.20;;
42662;SDS011;44330;51.360;6.686;2023-05-19T05:51:42;15.00;;;5.30;;
42662;SDS011;44330;51.360;6.686;2023-05-19T05:54:08;17.25;;;5.57;;
42662;SDS011;44330;51.360;6.686;2023-05-19T05:56:36;14.77;;;5.55;;
42662;SDS011;44330;51.360;6.686;2023-05-19T05:59:02;11.13;;;5.20;;
42662;SDS011;44330;51.360;6.686;2023-05-19T06:01:27;18.80;;;4.50;;
42662;SDS011;44330;51.360;6.686;2023-05-19T06:03:54;11.88;;;4.03;;
42662;SDS011;44330;51.360;6.686;2023-05-19T06:06:20;16.95;;;4.65;;
42662;SDS011;44330;51.360;6.686;2023-05-19T06:08:46;11.27;;;4.18;;
42662;SDS011;44330;51.360;6.686;2023-05-19T06:11:11;20.98;;;9.32;;
42662;SDS011;44330;51.360;6.686;2023-05-19T06:13:37;15.57;;;4.38;;
42662;SDS011;44330;51.360;6.686;2023-05-19T06:16:05;14.38;;;4.10;;
42662;SDS011;44330;51.360;6.686;2023-05-19T06:18:31;14.45;;;4.25;;
42662;SDS011;44330;51.360;6.686;2023-05-19T06:20:56;9.90;;;4.40;;
42662;SDS011;44330;51.360;6.686;2023-05-19T06:23:22;10.35;;;3.60;;
42662;SDS011;44330;51.360;6.686;2023-05-19T06:25:49;7.85;;;3.55;;
42662;SDS011;44330;51.360;6.686;2023-05-19T06:28:14;11.32;;;3.55;;
42662;SDS011;44330;51.360;6.686;2023-05-19T06:30:40;12.27;;;4.88;;
42662;SDS011;44330;51.360;6.686;2023-05-19T06:33:05;13.57;;;3.72;;
42662;SDS011;44330;51.360;6.686;2023-05-19T06:35:31;15.10;;;3.58;;
42662;SDS011;44330;51.360;6.686;2023-05-19T06:37:57;14.00;;;4.25;;
42662;SDS011;44330;51.360;6.686;2023-05-19T06:40:23;9.63;;;3.03;;
42662;SDS011;44330;51.360;6.686;2023-05-19T06:42:48;8.27;;;3.15;;
42662;SDS011;44330;51.360;6.686;2023-05-19T06:45:14;10.73;;;3.33;;
42662;SDS011;44330;51.360;6.686;2023-05-19T06:47:39;9.38;;;3.33;;
42662;SDS011;44330;51.360;6.686;2023-05-19T06:50:06;17.90;;;3.45;;
42662;SDS011;44330;51.360;6.686;2023-05-19T06:52:33;10.25;;;3.30;;
42662;SDS011;44330;51.360;6.686;2023-05-19T06:54:58;9.98;;;3.67;;
42662;SDS011;44330;51.360;6.686;2023-05-19T06:57:24;6.40;;;3.00;;
42662;SDS011;44330;51.360;6.686;2023-05-19T06:59:49;7.28;;;3.33;;
42662;SDS011;44330;51.360;6.686;2023-05-19T07:02:15;8.77;;;3.10;;
42662;SDS011;44330;51.360;6.686;2023-05-19T07:04:40;14.13;;;3.70;;
42662;SDS011;44330;51.360;6.686;2023-05-19T07:07:07;13.85;;;3.78;;
42662;SDS011;44330;51.360;6.686;2023-05-19T07:09:33;12.40;;;4.20;;
42662;SDS011;44330;51.360;6.686;2023-05-19T07:11:58;7.70;;;3.05;;
42662;SDS011;44330;51.360;6.686;2023-05-19T07:14:25;13.77;;;4.60;;
42662;SDS011;44330;51.360;6.686;2023-05-19T07:16:51;12.90;;;3.10;;
42662;SDS011;44330;51.360;6.686;2023-05-19T07:19:16;15.32;;;3.60;;
42662;SDS011;44330;51.360;6.686;2023-05-19T07:21:45;7.95;;;2.50;;
42662;SDS011;44330;51.360;6.686;2023-05-19T07:24:11;12.13;;;3.42;;
42662;SDS011;44330;51.360;6.686;2023-05-19T07:26:37;10.25;;;3.05;;
42662;SDS011;44330;51.360;6.686;2023-05-19T07:29:02;14.80;;;4.00;;
42662;SDS011;44330;51.360;6.686;2023-05-19T07:31:28;12.48;;;2.92;;
42662;SDS011;44330;51.360;6.686;2023-05-19T07:33:53;19.17;;;2.92;;
42662;SDS011;44330;51.360;6.686;2023-05-19T07:36:19;15.25;;;3.88;;
42662;SDS011;44330;51.360;6.686;2023-05-19T07:38:45;8.82;;;3.00;;
42662;SDS011;44330;51.360;6.686;2023-05-19T07:41:11;13.68;;;3.67;;
42662;SDS011;44330;51.360;6.686;2023-05-19T07:43:37;38.30;;;15.52;;
42662;SDS011;44330;51.360;6.686;2023-05-19T07:46:02;18.20;;;5.65;;
42662;SDS011;44330;51.360;6.686;2023-05-19T07:48:30;45.28;;;16.25;;
42662;SDS011;44330;51.360;6.686;2023-05-19T07:50:55;16.50;;;4.63;;
42662;SDS011;44330;51.360;6.686;2023-05-19T07:53:21;13.45;;;4.55;;
42662;SDS011;44330;51.360;6.686;2023-05-19T07:55:47;10.27;;;2.85;;
42662;SDS011;44330;51.360;6.686;2023-05-19T07:58:13;15.70;;;3.80;;
42662;SDS011;44330;51.360;6.686;2023-05-19T08:00:39;10.73;;;2.90;;
42662;SDS011;44330;51.360;6.686;2023-05-19T08:03:07;13.23;;;3.05;;
42662;SDS011;44330;51.360;6.686;2023-05-19T08:05:34;9.95;;;3.53;;
42662;SDS011;44330;51.360;6.686;2023-05-19T08:08:00;10.43;;;3.03;;
42662;SDS011;44330;51.360;6.686;2023-05-19T08:10:26;9.63;;;2.55;;
42662;SDS011;44330;51.360;6.686;2023-05-19T08:12:52;10.95;;;2.75;;
42662;SDS011;44330;51.360;6.686;2023-05-19T08:15:18;15.73;;;3.03;;
42662;SDS011;44330;51.360;6.686;2023-05-19T08:17:44;11.20;;;3.80;;
42662;SDS011;44330;51.360;6.686;2023-05-19T08:20:15;14.27;;;4.90;;
42662;SDS011;44330;51.360;6.686;2023-05-19T08:22:41;16.90;;;3.60;;
42662;SDS011;44330;51.360;6.686;2023-05-19T08:25:07;12.90;;;3.00;;
42662;SDS011;44330;51.360;6.686;2023-05-19T08:27:33;12.73;;;2.53;;
42662;SDS011;44330;51.360;6.686;2023-05-19T08:30:01;13.80;;;3.60;;
42662;SDS011;44330;51.360;6.686;2023-05-19T08:32:29;24.33;;;4.60;;
42662;SDS011;44330;51.360;6.686;2023-05-19T08:34:55;19.38;;;6.32;;
42662;SDS011;44330;51.360;6.686;2023-05-19T08:37:20;15.60;;;4.70;;
42662;SDS011;44330;51.360;6.686;2023-05-19T08:39:46;17.13;;;4.85;;
42662;SDS011;44330;51.360;6.686;2023-05-19T08:42:11;10.60;;;2.45;;
42662;SDS011;44330;51.360;6.686;2023-05-19T08:44:37;7.15;;;1.55;;
42662;SDS011;44330;51.360;6.686;2023-05-19T08:47:04;8.43;;;2.15;;
42662;SDS011;44330;51.360;6.686;2023-05-19T08:49:32;14.63;;;2.38;;
42662;SDS011;44330;51.360;6.686;2023-05-19T08:54:56;8.20;;;2.35;;
42662;SDS011;44330;51.360;6.686;2023-05-19T08:57:33;7.30;;;1.95;;
42662;SDS011;44330;51.360;6.686;2023-05-19T09:00:01;15.13;;;5.53;;
42662;SDS011;44330;51.360;6.686;2023-05-19T09:02:29;14.15;;;3.53;;
42662;SDS011;44330;51.360;6.686;2023-05-19T09:04:55;9.70;;;2.45;;
42662;SDS011;44330;51.360;6.686;2023-05-19T09:07:21;5.95;;;1.73;;
42662;SDS011;44330;51.360;6.686;2023-05-19T09:09:49;7.75;;;1.98;;
42662;SDS011;44330;51.360;6.686;2023-05-19T09:12:14;6.50;;;2.08;;
42662;SDS011;44330;51.360;6.686;2023-05-19T09:14:40;6.82;;;1.83;;
42662;SDS011;44330;51.360;6.686;2023-05-19T09:17:06;11.18;;;1.83;;
42662;SDS011;44330;51.360;6.686;2023-05-19T09:19:31;10.25;;;1.95;;
42662;SDS011;44330;51.360;6.686;2023-05-19T09:21:57;10.93;;;2.33;;
42662;SDS011;44330;51.360;6.686;2023-05-19T09:24:30;5.20;;;1.65;;
42662;SDS011;44330;51.360;6.686;2023-05-19T09:26:57;5.53;;;1.75;;
42662;SDS011;44330;51.360;6.686;2023-05-19T09:29:23;10.18;;;2.40;;
42662;SDS011;44330;51.360;6.686;2023-05-19T09:31:50;8.43;;;2.17;;
42662;SDS011;44330;51.360;6.686;2023-05-19T09:34:18;9.43;;;1.75;;
42662;SDS011;44330;51.360;6.686;2023-05-19T09:36:45;8.68;;;2.17;;
42662;SDS011;44330;51.360;6.686;2023-05-19T09:39:20;6.45;;;1.85;;
42662;SDS011;44330;51.360;6.686;2023-05-19T09:41:51;7.47;;;2.20;;
42662;SDS011;44330;51.360;6.686;2023-05-19T09:44:22;6.88;;;2.03;;
42662;SDS011;44330;51.360;6.686;2023-05-19T09:46:49;6.65;;;1.80;;
42662;SDS011;44330;51.360;6.686;2023-05-19T09:49:23;9.43;;;2.30;;
42662;SDS011;44330;51.360;6.686;2023-05-19T09:51:57;33.95;;;14.68;;
42662;SDS011;44330;51.360;6.686;2023-05-19T09:54:24;15.82;;;5.38;;
42662;SDS011;44330;51.360;6.686;2023-05-19T09:57:02;13.70;;;2.55;;
42662;SDS011;44330;51.360;6.686;2023-05-19T09:59:29;6.28;;;1.75;;
42662;SDS011;44330;51.360;6.686;2023-05-19T10:01:58;9.60;;;2.13;;
42662;SDS011;44330;51.360;6.686;2023-05-19T10:04:25;6.65;;;1.83;;
42662;SDS011;44330;51.360;6.686;2023-05-19T10:06:53;8.15;;;2.13;;
42662;SDS011;44330;51.360;6.686;2023-05-19T10:09:20;8.43;;;2.28;;
42662;SDS011;44330;51.360;6.686;2023-05-19T10:11:53;11.38;;;2.35;;
42662;SDS011;44330;51.360;6.686;2023-05-19T10:14:24;7.00;;;2.47;;
42662;SDS011;44330;51.360;6.686;2023-05-19T10:16:56;9.32;;;1.98;;
42662;SDS011;44330;51.360;6.686;2023-05-19T10:19:23;10.45;;;1.90;;
42662;SDS011;44330;51.360;6.686;2023-05-19T10:21:51;5.50;;;2.17;;
42662;SDS011;44330;51.360;6.686;2023-05-19T10:24:17;4.55;;;1.50;;
42662;SDS011;44330;51.360;6.686;2023-05-19T10:26:48;4.75;;;1.55;;
42662;SDS011;44330;51.360;6.686;2023-05-19T10:29:16;8.57;;;1.98;;
42662;SDS011;44330;51.360;6.686;2023-05-19T10:31:45;10.50;;;3.80;;
42662;SDS011;44330;51.360;6.686;2023-05-19T10:39:10;14.35;;;3.45;;
42662;SDS011;44330;51.360;6.686;2023-05-19T10:47:42;10.43;;;2.13;;
42662;SDS011;44330;51.360;6.686;2023-05-19T10:50:08;11.52;;;2.70;;
42662;SDS011;44330;51.360;6.686;2023-05-19T10:52:38;7.07;;;1.90;;
42662;SDS011;44330;51.360;6.686;2023-05-19T10:55:08;5.80;;;1.67;;
42662;SDS011;44330;51.360;6.686;2023-05-19T10:57:54;5.93;;;1.90;;
42662;SDS011;44330;51.360;6.686;2023-05-19T11:00:26;12.02;;;2.00;;
42662;SDS011;44330;51.360;6.686;2023-05-19T11:02:53;9.52;;;2.10;;
42662;SDS011;44330;51.360;6.686;2023-05-19T11:05:35;6.30;;;1.83;;
42662;SDS011;44330;51.360;6.686;2023-05-19T11:08:01;9.63;;;2.22;;
42662;SDS011;44330;51.360;6.686;2023-05-19T11:10:29;8.52;;;2.03;;
42662;SDS011;44330;51.360;6.686;2023-05-19T11:12:55;6.32;;;1.90;;
42662;SDS011;44330;51.360;6.686;2023-05-19T11:15:23;3.83;;;1.77;;
42662;SDS011;44330;51.360;6.686;2023-05-19T11:17:51;7.15;;;2.28;;
42662;SDS011;44330;51.360;6.686;2023-05-19T11:20:21;9.45;;;2.00;;
42662;SDS011;44330;51.360;6.686;2023-05-19T11:25:46;5.20;;;1.77;;
42662;SDS011;44330;51.360;6.686;2023-05-19T11:28:31;6.30;;;2.00;;
42662;SDS011;44330;51.360;6.686;2023-05-19T11:30:57;5.78;;;1.90;;
42662;SDS011;44330;51.360;6.686;2023-05-19T11:33:25;5.50;;;1.70;;
42662;SDS011;44330;51.360;6.686;2023-05-19T11:35:51;7.18;;;2.03;;
42662;SDS011;44330;51.360;6.686;2023-05-19T11:38:22;15.55;;;2.63;;
42662;SDS011;44330;51.360;6.686;2023-05-19T11:40:48;9.18;;;1.80;;
42662;SDS011;44330;51.360;6.686;2023-05-19T11:43:16;8.93;;;1.83;;
42662;SDS011;44330;51.360;6.686;2023-05-19T11:45:42;6.35;;;1.90;;
42662;SDS011;44330;51.360;6.686;2023-05-19T11:48:11;5.28;;;2.10;;
42662;SDS011;44330;51.360;6.686;2023-05-19T11:50:36;7.03;;;2.42;;
42662;SDS011;44330;51.360;6.686;2023-05-19T11:53:05;8.93;;;3.30;;
42662;SDS011;44330;51.360;6.686;2023-05-19T11:55:31;9.23;;;2.35;;
42662;SDS011;44330;51.360;6.686;2023-05-19T12:00:23;11.30;;;2.90;;
42662;SDS011;44330;51.360;6.686;2023-05-19T12:02:49;10.68;;;2.80;;
42662;SDS011;44330;51.360;6.686;2023-05-19T12:05:18;7.93;;;1.88;;
42662;SDS011;44330;51.360;6.686;2023-05-19T12:07:51;6.88;;;2.50;;
42662;SDS011;44330;51.360;6.686;2023-05-19T12:10:20;12.07;;;2.65;;
42662;SDS011;44330;51.360;6.686;2023-05-19T12:12:47;7.57;;;2.00;;
42662;SDS011;44330;51.360;6.686;2023-05-19T12:15:15;5.15;;;1.45;;
42662;SDS011;44330;51.360;6.686;2023-05-19T12:17:44;8.48;;;1.95;;
42662;SDS011;44330;51.360;6.686;2023-05-19T12:20:13;5.80;;;2.08;;
42662;SDS011;44330;51.360;6.686;2023-05-19T12:22:38;6.47;;;2.92;;
42662;SDS011;44330;51.360;6.686;2023-05-19T12:25:04;5.97;;;2.00;;
42662;SDS011;44330;51.360;6.686;2023-05-19T12:27:33;8.15;;;2.00;;
42662;SDS011;44330;51.360;6.686;2023-05-19T12:30:01;11.23;;;2.63;;
42662;SDS011;44330;51.360;6.686;2023-05-19T12:32:28;5.63;;;1.90;;
42662;SDS011;44330;51.360;6.686;2023-05-19T12:34:56;6.85;;;2.15;;
42662;SDS011;44330;51.360;6.686;2023-05-19T12:37:25;6.55;;;2.13;;
42662;SDS011;44330;51.360;6.686;2023-05-19T12:39:51;5.22;;;2.10;;
42662;SDS011;44330;51.360;6.686;2023-05-19T12:42:19;11.02;;;1.95;;
42662;SDS011;44330;51.360;6.686;2023-05-19T12:44:47;6.90;;;1.70;;
42662;SDS011;44330;51.360;6.686;2023-05-19T12:47:15;8.25;;;2.20;;
42662;SDS011;44330;51.360;6.686;2023-05-19T12:52:26;10.20;;;3.40;;
42662;SDS011;44330;51.360;6.686;2023-05-19T12:55:03;9.18;;;2.20;;
42662;SDS011;44330;51.360;6.686;2023-05-19T12:57:32;12.52;;;2.13;;
42662;SDS011;44330;51.360;6.686;2023-05-19T13:02:34;5.10;;;2.20;;
42662;SDS011;44330;51.360;6.686;2023-05-19T13:05:18;13.18;;;3.20;;
42662;SDS011;44330;51.360;6.686;2023-05-19T13:10:20;7.78;;;2.08;;
42662;SDS011;44330;51.360;6.686;2023-05-19T13:12:46;7.75;;;1.90;;
42662;SDS011;44330;51.360;6.686;2023-05-19T13:15:11;9.27;;;2.13;;
42662;SDS011;44330;51.360;6.686;2023-05-19T13:17:37;8.30;;;1.73;;
42662;SDS011;44330;51.360;6.686;2023-05-19T13:20:02;7.22;;;2.33;;
42662;SDS011;44330;51.360;6.686;2023-05-19T13:22:29;6.22;;;2.00;;
42662;SDS011;44330;51.360;6.686;2023-05-19T13:24:55;6.43;;;1.92;;
42662;SDS011;44330;51.360;6.686;2023-05-19T13:27:23;4.72;;;1.88;;
42662;SDS011;44330;51.360;6.686;2023-05-19T13:29:48;9.75;;;3.00;;
42662;SDS011;44330;51.360;6.686;2023-05-19T13:32:14;6.85;;;2.58;;
42662;SDS011;44330;51.360;6.686;2023-05-19T13:34:40;11.02;;;3.05;;
42662;SDS011;44330;51.360;6.686;2023-05-19T13:37:05;9.85;;;2.60;;
42662;SDS011;44330;51.360;6.686;2023-05-19T13:39:33;9.93;;;2.35;;
42662;SDS011;44330;51.360;6.686;2023-05-19T13:41:59;11.18;;;3.53;;
42662;SDS011;44330;51.360;6.686;2023-05-19T13:44:25;6.70;;;2.45;;
42662;SDS011;44330;51.360;6.686;2023-05-19T13:46:50;7.45;;;2.45;;
42662;SDS011;44330;51.360;6.686;2023-05-19T13:49:16;16.95;;;6.22;;
42662;SDS011;44330;51.360;6.686;2023-05-19T13:51:41;7.00;;;2.70;;
42662;SDS011;44330;51.360;6.686;2023-05-19T13:54:08;9.57;;;2.47;;
42662;SDS011;44330;51.360;6.686;2023-05-19T13:56:33;7.82;;;2.10;;
42662;SDS011;44330;51.360;6.686;2023-05-19T13:58:59;9.05;;;2.20;;
42662;SDS011;44330;51.360;6.686;2023-05-19T14:01:25;6.03;;;2.10;;
42662;SDS011;44330;51.360;6.686;2023-05-19T14:03:50;17.85;;;5.18;;
42662;SDS011;44330;51.360;6.686;2023-05-19T14:06:16;10.85;;;2.72;;
42662;SDS011;44330;51.360;6.686;2023-05-19T14:08:41;8.73;;;2.55;;
42662;SDS011;44330;51.360;6.686;2023-05-19T14:11:07;8.30;;;2.00;;
42662;SDS011;44330;51.360;6.686;2023-05-19T14:13:32;3.50;;;1.67;;
42662;SDS011;44330;51.360;6.686;2023-05-19T14:15:58;7.03;;;1.80;;
42662;SDS011;44330;51.360;6.686;2023-05-19T14:18:23;15.07;;;3.70;;
42662;SDS011;44330;51.360;6.686;2023-05-19T14:20:50;14.80;;;3.78;;
42662;SDS011;44330;51.360;6.686;2023-05-19T14:23:16;10.30;;;2.58;;
42662;SDS011;44330;51.360;6.686;2023-05-19T14:25:41;7.35;;;2.00;;
42662;SDS011;44330;51.360;6.686;2023-05-19T14:28:07;7.78;;;2.30;;
42662;SDS011;44330;51.360;6.686;2023-05-19T14:30:34;6.47;;;2.17;;
42662;SDS011;44330;51.360;6.686;2023-05-19T14:33:00;5.68;;;2.28;;
42662;SDS011;44330;51.360;6.686;2023-05-19T14:35:25;8.43;;;2.00;;
42662;SDS011;44330;51.360;6.686;2023-05-19T14:37:51;8.77;;;3.53;;
42662;SDS011;44330;51.360;6.686;2023-05-19T14:40:16;7.30;;;2.00;;
42662;SDS011;44330;51.360;6.686;2023-05-19T14:42:42;6.93;;;1.70;;
42662;SDS011;44330;51.360;6.686;2023-05-19T14:45:08;10.50;;;2.30;;
42662;SDS011;44330;51.360;6.686;2023-05-19T14:47:34;5.78;;;1.85;;
42662;SDS011;44330;51.360;6.686;2023-05-19T14:49:59;7.00;;;2.03;;
42662;SDS011;44330;51.360;6.686;2023-05-19T14:52:25;8.85;;;2.38;;
42662;SDS011;44330;51.360;6.686;2023-05-19T14:54:51;11.10;;;2.83;;
42662;SDS011;44330;51.360;6.686;2023-05-19T14:57:16;4.28;;;1.48;;
42662;SDS011;44330;51.360;6.686;2023-05-19T14:59:42;7.53;;;2.40;;
42662;SDS011;44330;51.360;6.686;2023-05-19T15:02:08;8.10;;;2.50;;
42662;SDS011;44330;51.360;6.686;2023-05-19T15:04:35;6.65;;;2.33;;
42662;SDS011;44330;51.360;6.686;2023-05-19T15:07:01;7.18;;;2.03;;
42662;SDS011;44330;51.360;6.686;2023-05-19T15:09:26;6.82;;;1.80;;
42662;SDS011;44330;51.360;6.686;2023-05-19T15:11:52;6.38;;;1.92;;
42662;SDS011;44330;51.360;6.686;2023-05-19T15:14:17;5.25;;;1.90;;
42662;SDS011;44330;51.360;6.686;2023-05-19T15:16:43;9.75;;;3.70;;